Time;durP1;ratioP1;P1;durP2;ratioP2;P2;SDS_P1;SDS_P2;PMS_P1;PMS_P2;Temp;Humidity;BMP_temperature;BMP_pressure;BME280_temperature;BME280_humidity;BME280_pressure;Samples;Min_cycle;Max_cycle;Signal;HPM_P1;HPM_P2
2021/05/15 00:00:39;;;;;;;9.50;5.82;;;;;;;6.72;100.00;100085.31;4931557;29;20035;-83
2021/05/15 00:03:07;;;;;;;9.25;6.25;;;;;;;6.63;100.00;100082.81;4932088;29;20070;-82
2021/05/15 00:05:33;;;;;;;9.00;5.70;;;;;;;6.63;100.00;100086.31;4903475;29;20035;-82
2021/05/15 00:08:02;;;;;;;8.73;5.83;;;;;;;6.54;100.00;100085.56;4915102;29;20067;-85
2021/05/15 00:10:28;;;;;;;8.23;5.50;;;;;;;6.49;100.00;100083.88;4888936;29;20047;-84
2021/05/15 00:12:54;;;;;;;7.88;5.07;;;;;;;6.38;100.00;100091.00;4919394;29;20119;-84
2021/05/15 00:15:19;;;;;;;10.37;7.13;;;;;;;6.32;100.00;100092.88;4920324;29;20035;-84
2021/05/15 00:17:45;;;;;;;8.07;5.70;;;;;;;6.27;100.00;100084.19;4896869;29;20068;-84
2021/05/15 00:20:15;;;;;;;7.53;5.00;;;;;;;6.23;100.00;100085.13;4915090;29;20086;-82
2021/05/15 00:22:42;;;;;;;9.97;5.97;;;;;;;6.24;100.00;100086.84;4904720;29;20027;-83
2021/05/15 00:25:09;;;;;;;8.23;4.70;;;;;;;6.19;100.00;100086.88;4898405;29;20047;-84
2021/05/15 00:27:36;;;;;;;19.47;6.70;;;;;;;6.13;100.00;100093.06;4916992;29;20028;-85
2021/05/15 00:30:04;;;;;;;8.60;5.40;;;;;;;6.11;100.00;100086.09;4926272;29;20027;-83
2021/05/15 00:32:29;;;;;;;9.20;5.60;;;;;;;6.11;100.00;100088.72;4885813;29;20066;-84
2021/05/15 00:34:55;;;;;;;9.43;5.70;;;;;;;6.04;100.00;100087.91;4885490;29;20130;-84
2021/05/15 00:37:20;;;;;;;8.47;5.37;;;;;;;6.01;100.00;100093.22;4899116;29;20037;-84
2021/05/15 00:39:46;;;;;;;7.47;4.53;;;;;;;6.01;100.00;100085.34;4908097;29;20044;-87
2021/05/15 00:42:11;;;;;;;7.57;5.03;;;;;;;5.98;100.00;100084.53;4897750;29;20031;-84
2021/05/15 00:44:44;;;;;;;9.37;5.07;;;;;;;6.00;100.00;100082.75;4907870;29;20024;-85
2021/05/15 00:47:14;;;;;;;9.73;5.37;;;;;;;6.05;100.00;100081.78;4912473;29;20035;-83
2021/05/15 00:49:40;;;;;;;10.20;5.87;;;;;;;6.08;100.00;100086.16;4923412;29;20197;-84
2021/05/15 00:52:06;;;;;;;11.83;7.17;;;;;;;6.12;100.00;100090.47;4919079;29;20508;-85
2021/05/15 00:54:35;;;;;;;9.60;6.67;;;;;;;6.18;100.00;100098.28;4903486;29;20035;-85
2021/05/15 00:57:01;;;;;;;10.77;6.97;;;;;;;6.21;100.00;100092.97;4876924;29;20043;-85
2021/05/15 00:59:26;;;;;;;11.83;7.93;;;;;;;6.28;100.00;100083.28;4888951;29;20414;-86
2021/05/15 01:01:52;;;;;;;11.93;7.23;;;;;;;6.32;100.00;100092.88;4904149;29;20039;-83
2021/05/15 01:04:17;;;;;;;10.03;6.47;;;;;;;6.35;100.00;100092.81;4938187;29;20042;-82
2021/05/15 01:06:43;;;;;;;12.43;7.93;;;;;;;6.36;100.00;100084.06;4903591;29;20032;-86
2021/05/15 01:09:08;;;;;;;10.47;5.80;;;;;;;6.27;100.00;100082.41;4902793;29;20067;-84
2021/05/15 01:11:34;;;;;;;8.90;5.17;;;;;;;6.25;100.00;100093.81;4891712;29;20059;-83
2021/05/15 01:14:02;;;;;;;9.77;6.23;;;;;;;6.28;100.00;100088.53;4911855;29;20393;-84
2021/05/15 01:16:28;;;;;;;9.53;5.70;;;;;;;6.23;100.00;100098.22;4915839;29;20508;-83
2021/05/15 01:18:53;;;;;;;10.40;5.40;;;;;;;6.25;100.00;100099.06;4920401;29;20047;-81
2021/05/15 01:21:19;;;;;;;9.37;5.27;;;;;;;6.28;100.00;100096.41;4913417;29;20087;-85
2021/05/15 01:23:45;;;;;;;9.50;6.20;;;;;;;6.32;100.00;100092.88;4893705;29;20035;-84
2021/05/15 01:26:17;;;;;;;7.77;6.00;;;;;;;6.39;100.00;100100.66;4921025;29;20035;-83
2021/05/15 01:28:43;;;;;;;9.17;5.53;;;;;;;6.44;100.00;100106.69;4887657;29;20098;-83
2021/05/15 01:31:10;;;;;;;10.97;6.80;;;;;;;6.47;100.00;100103.16;4885035;29;20063;-82
2021/05/15 01:33:36;;;;;;;7.13;4.90;;;;;;;6.49;100.00;100094.38;4902756;29;20032;-84
2021/05/15 01:36:01;;;;;;;10.17;5.60;;;;;;;6.55;100.00;100096.03;4903836;29;20043;-84
2021/05/15 01:38:27;;;;;;;12.67;6.73;;;;;;;6.62;100.00;100094.22;4918313;29;20039;-83
2021/05/15 01:40:53;;;;;;;9.57;5.83;;;;;;;6.66;100.00;100096.78;4919327;29;20919;-84
2021/05/15 01:43:22;;;;;;;9.50;6.20;;;;;;;6.74;100.00;100094.94;4888940;29;20194;-81
2021/05/15 01:45:49;;;;;;;12.20;6.90;;;;;;;6.77;100.00;100087.00;4884707;29;20126;-85
2021/05/15 01:48:16;;;;;;;10.53;7.20;;;;;;;6.85;100.00;100088.66;4921285;29;20039;-83
2021/05/15 01:50:45;;;;;;;11.03;7.37;;;;;;;6.88;100.00;100084.22;4883721;29;20048;-85
2021/05/15 01:53:10;;;;;;;11.63;6.93;;;;;;;6.92;100.00;100090.31;4881023;29;20103;-83
2021/05/15 01:55:36;;;;;;;10.80;7.23;;;;;;;6.95;100.00;100092.88;4917852;29;20304;-85
2021/05/15 01:58:01;;;;;;;10.10;6.60;;;;;;;7.00;100.00;100091.06;4888247;29;20036;-81
2021/05/15 02:00:27;;;;;;;9.80;6.30;;;;;;;7.00;100.00;100080.56;4902055;29;20668;-83
2021/05/15 02:02:53;;;;;;;10.73;7.20;;;;;;;7.04;100.00;100084.84;4919697;29;20038;-83
2021/05/15 02:05:18;;;;;;;9.15;6.25;;;;;;;7.05;100.00;100087.44;4905195;28;20122;-85
2021/05/15 02:07:44;;;;;;;11.40;7.20;;;;;;;7.09;100.00;100087.41;4910515;29;20032;-84
2021/05/15 02:10:10;;;;;;;11.07;7.05;;;;;;;7.09;100.00;100087.41;4901464;29;20531;-81
2021/05/15 02:12:35;;;;;;;10.05;6.68;;;;;;;7.10;100.00;100083.91;4925201;29;20036;-79
2021/05/15 02:15:01;;;;;;;11.70;5.73;;;;;;;7.11;100.00;100077.75;4918450;29;20520;-83
2021/05/15 02:17:28;;;;;;;11.75;6.25;;;;;;;7.12;100.00;100079.47;4874212;29;20462;-82
2021/05/15 02:19:53;;;;;;;12.10;6.07;;;;;;;7.09;100.00;100071.66;4930972;29;20024;-83
2021/05/15 02:22:19;;;;;;;9.60;6.67;;;;;;;7.09;100.00;100075.16;4906955;29;20028;-83
2021/05/15 02:24:44;;;;;;;9.10;5.72;;;;;;;7.07;100.00;100070.81;4903913;29;20073;-84
2021/05/15 02:27:29;;;;;;;8.88;5.93;;;;;;;7.05;100.00;100070.81;4919065;29;20034;-82
2021/05/15 02:29:55;;;;;;;8.60;5.80;;;;;;;6.99;100.00;100069.19;4901444;29;20027;-85
2021/05/15 02:32:20;;;;;;;9.70;5.73;;;;;;;7.03;100.00;100072.63;4902234;29;20054;-82
2021/05/15 02:34:46;;;;;;;11.20;5.82;;;;;;;7.01;100.00;100072.66;4919195;29;20039;-84
2021/05/15 02:37:11;;;;;;;9.13;5.50;;;;;;;7.04;100.00;100072.59;4896606;29;20126;-85
2021/05/15 02:39:37;;;;;;;8.57;5.50;;;;;;;7.04;100.00;100066.47;4901817;29;20036;-83
2021/05/15 02:42:02;;;;;;;9.85;6.30;;;;;;;7.05;100.00;100063.81;4915700;29;20036;-80
2021/05/15 02:44:28;;;;;;;10.00;6.07;;;;;;;7.04;100.00;100063.84;4916552;29;20044;-83
2021/05/15 02:46:53;;;;;;;9.25;5.80;;;;;;;7.04;100.00;100069.09;4900011;29;20051;-82
2021/05/15 02:49:19;;;;;;;11.53;7.33;;;;;;;7.03;100.00;100064.75;4908471;29;20059;-82
2021/05/15 02:51:44;;;;;;;10.98;7.43;;;;;;;7.03;100.00;100057.72;4899532;29;21692;-82
2021/05/15 02:54:10;;;;;;;11.73;6.45;;;;;;;7.02;100.00;100063.00;4904898;29;20039;-81
2021/05/15 02:56:35;;;;;;;9.73;6.03;;;;;;;7.02;100.00;100065.63;4915370;29;20059;-84
2021/05/15 02:59:01;;;;;;;11.18;6.68;;;;;;;7.04;100.00;100069.97;4903341;29;20031;-80
2021/05/15 03:01:26;;;;;;;9.73;6.28;;;;;;;7.06;100.00;100064.69;4916625;29;20051;-81
2021/05/15 03:03:52;;;;;;;8.93;5.90;;;;;;;6.99;100.00;100058.69;4901269;29;20130;-84
2021/05/15 03:06:17;;;;;;;10.77;6.03;;;;;;;7.03;100.00;100059.47;4914041;29;20036;-81
2021/05/15 03:08:44;;;;;;;8.88;5.72;;;;;;;7.03;100.00;100055.09;4903941;29;20039;-80
2021/05/15 03:11:09;;;;;;;8.10;5.80;;;;;;;7.00;100.00;100046.41;4919774;29;20031;-81
2021/05/15 03:13:35;;;;;;;10.23;6.00;;;;;;;7.04;100.00;100051.56;4918884;29;20035;-80
2021/05/15 03:16:00;;;;;;;10.40;5.88;;;;;;;7.03;100.00;100056.84;4922341;29;20613;-84
2021/05/15 03:18:26;;;;;;;10.18;6.13;;;;;;;7.06;100.00;100046.28;4908873;29;20036;-80
2021/05/15 03:20:52;;;;;;;11.20;6.88;;;;;;;7.05;100.00;100045.44;4907241;29;20035;-81
2021/05/15 03:23:17;;;;;;;9.88;6.07;;;;;;;7.10;100.00;100045.38;4913493;29;20082;-83
2021/05/15 03:25:43;;;;;;;9.40;5.75;;;;;;;7.12;100.00;100048.81;4913383;29;20039;-83
2021/05/15 03:28:08;;;;;;;10.23;6.43;;;;;;;7.13;100.00;100044.44;4893169;29;20040;-82
2021/05/15 03:30:34;;;;;;;10.75;6.22;;;;;;;7.15;100.00;100046.16;4891562;29;20031;-82
2021/05/15 03:32:59;;;;;;;10.50;5.85;;;;;;;7.19;100.00;100049.59;4891794;29;20410;-84
2021/05/15 03:35:26;;;;;;;11.85;6.70;;;;;;;7.20;100.00;100046.94;4901761;29;20123;-83
2021/05/15 03:37:52;;;;;;;10.10;7.15;;;;;;;7.22;100.00;100053.03;4919451;29;20047;-83
2021/05/15 03:40:17;;;;;;;9.35;6.25;;;;;;;7.23;100.00;100046.00;4899936;29;20035;-85
2021/05/15 03:42:43;;;;;;;10.18;5.82;;;;;;;7.24;100.00;100053.91;4900993;29;20040;-83
2021/05/15 03:45:09;;;;;;;10.02;6.65;;;;;;;7.23;100.00;100052.16;4916746;29;20119;-82
2021/05/15 03:47:35;;;;;;;12.10;6.47;;;;;;;7.26;100.00;100048.63;4917949;29;20036;-82
2021/05/15 03:50:01;;;;;;;9.70;5.93;;;;;;;7.24;100.00;100045.16;4896886;29;20386;-84
2021/05/15 03:52:27;;;;;;;9.47;5.77;;;;;;;7.21;100.00;100040.78;4890355;29;20082;-81
2021/05/15 03:54:52;;;;;;;10.32;6.20;;;;;;;7.23;100.00;100041.66;4913478;29;20035;-84
2021/05/15 03:57:18;;;;;;;11.82;6.45;;;;;;;7.19;100.00;100047.84;4917253;29;20039;-85
2021/05/15 03:59:43;;;;;;;7.93;5.80;;;;;;;7.20;100.00;100041.69;4882950;29;20051;-84
2021/05/15 04:02:09;;;;;;;9.68;6.13;;;;;;;7.21;100.00;100050.44;4916242;29;20032;-83
2021/05/15 04:04:37;;;;;;;11.40;6.07;;;;;;;7.23;100.00;100044.28;4900130;29;20050;-84
2021/05/15 04:07:03;;;;;;;9.43;6.15;;;;;;;7.25;100.00;100055.63;4893293;29;20036;-83
2021/05/15 04:09:29;;;;;;;9.10;6.00;;;;;;;7.25;100.00;100055.63;4877591;29;20074;-82
2021/05/15 04:11:54;;;;;;;8.50;5.63;;;;;;;7.24;100.00;100047.78;4901878;29;20060;-83
2021/05/15 04:14:26;;;;;;;9.07;6.25;;;;;;;7.22;100.00;100053.03;4910591;29;20047;-84
2021/05/15 04:19:32;;;;;;;7.78;5.30;;;;;;;7.24;100.00;100047.78;4929796;29;20130;-84
2021/05/15 04:21:58;;;;;;;7.15;5.20;;;;;;;7.25;100.00;100052.13;4890350;29;20507;-84
2021/05/15 04:24:25;;;;;;;10.57;6.88;;;;;;;7.24;100.00;100048.66;4914958;29;20493;-83
2021/05/15 04:26:52;;;;;;;9.88;6.18;;;;;;;7.25;100.00;100044.25;4899642;29;20042;-85
2021/05/15 04:29:18;;;;;;;8.75;5.93;;;;;;;7.26;100.00;100053.88;4909043;29;20421;-84
2021/05/15 04:31:43;;;;;;;7.75;5.13;;;;;;;7.25;100.00;100042.50;4908227;29;20032;-82
2021/05/15 04:34:09;;;;;;;8.20;5.47;;;;;;;7.24;100.00;100045.16;4872215;29;20044;-85
2021/05/15 04:36:35;;;;;;;9.52;5.65;;;;;;;7.24;100.00;100046.03;4915607;29;20043;-84
2021/05/15 04:39:01;;;;;;;7.35;4.90;;;;;;;7.24;100.00;100045.16;4906781;29;20626;-84
2021/05/15 04:41:26;;;;;;;8.02;6.25;;;;;;;7.26;100.00;100044.22;4898143;29;20076;-84
2021/05/15 04:43:52;;;;;;;8.98;5.47;;;;;;;7.28;100.00;100047.69;4911108;29;20119;-81
2021/05/15 04:46:18;;;;;;;8.30;5.93;;;;;;;7.34;100.00;100054.59;4896895;29;20056;-82
2021/05/15 04:48:44;;;;;;;8.35;5.15;;;;;;;7.25;100.00;100054.75;4898887;29;20036;-84
2021/05/15 04:51:11;;;;;;;9.50;5.80;;;;;;;7.23;100.00;100052.16;4899022;29;20063;-81
2021/05/15 04:53:36;;;;;;;8.60;5.70;;;;;;;7.26;100.00;100056.50;4895178;29;20442;-81
2021/05/15 04:56:02;;;;;;;8.90;5.05;;;;;;;7.32;100.00;100053.78;4911887;29;20042;-85
2021/05/15 04:58:27;;;;;;;7.97;5.47;;;;;;;7.38;100.00;100047.53;4883996;29;20035;-84
2021/05/15 05:00:53;;;;;;;7.93;5.32;;;;;;;7.37;100.00;100049.28;4987645;23;20022;-85
2021/05/15 05:03:18;;;;;;;7.43;5.63;;;;;;;7.44;100.00;100039.53;4960322;28;20039;-85
2021/05/15 05:05:46;;;;;;;7.57;5.03;;;;;;;7.43;100.00;100035.19;4932129;28;20033;-84
2021/05/15 05:08:13;;;;;;;9.65;5.60;;;;;;;7.43;100.00;100038.69;4934300;28;20130;-85
2021/05/15 05:10:38;;;;;;;8.50;5.78;;;;;;;7.39;100.00;100038.75;4963336;28;20035;-88
2021/05/15 05:13:04;;;;;;;8.60;5.32;;;;;;;7.38;100.00;100043.13;4940064;28;20506;-82
2021/05/15 05:15:30;;;;;;;9.82;5.57;;;;;;;7.46;100.00;100040.38;4944736;28;20035;-84
2021/05/15 05:17:55;;;;;;;7.50;4.88;;;;;;;7.49;100.00;100045.59;4929518;28;20034;-84
2021/05/15 05:20:21;;;;;;;7.43;5.32;;;;;;;7.66;100.00;100040.03;4947188;28;20034;-84
2021/05/15 05:22:47;;;;;;;8.48;4.95;;;;;;;7.72;100.00;100035.50;4941423;28;20031;-84
2021/05/15 05:25:13;;;;;;;7.78;5.80;;;;;;;7.80;100.00;100038.84;4945811;28;20137;-85
2021/05/15 05:27:45;;;;;;;7.28;4.82;;;;;;;7.82;100.00;100046.75;4932854;28;20630;-84
2021/05/15 05:30:11;;;;;;;7.68;5.68;;;;;;;7.90;100.00;100036.91;4953961;28;20030;-84
2021/05/15 05:32:37;;;;;;;8.93;5.20;;;;;;;8.07;100.00;100042.75;4940867;28;20089;-84
2021/05/15 05:35:03;;;;;;;6.93;5.00;;;;;;;8.23;100.00;100055.56;4936389;28;20043;-84
2021/05/15 05:37:28;;;;;;;7.43;4.50;;;;;;;8.32;100.00;100044.84;4963734;28;20114;-84
2021/05/15 05:39:54;;;;;;;9.00;5.43;;;;;;;8.40;100.00;100049.06;4957606;28;20062;-85
2021/05/15 05:42:20;;;;;;;8.38;5.40;;;;;;;8.41;100.00;100047.34;4961728;28;20038;-85
2021/05/15 05:44:45;;;;;;;6.95;4.32;;;;;;;8.49;100.00;100042.75;4922596;28;20041;-86
2021/05/15 05:47:12;;;;;;;7.28;4.85;;;;;;;8.59;100.00;100052.19;4985126;28;20030;-85
2021/05/15 05:49:38;;;;;;;6.20;4.32;;;;;;;8.61;100.00;100039.84;4970738;28;20646;-84
2021/05/15 05:52:04;;;;;;;8.73;5.20;;;;;;;8.69;100.00;100048.44;4950350;28;20030;-84
2021/05/15 05:54:29;;;;;;;6.45;4.60;;;;;;;8.92;100.00;100044.44;4952521;28;20057;-84
2021/05/15 05:56:55;;;;;;;8.20;4.60;;;;;;;10.15;100.00;100041.16;4966605;28;20495;-85
2021/05/15 05:59:20;;;;;;;7.95;3.97;;;;;;;11.84;98.43;100040.19;4966495;28;20125;-86
2021/05/15 06:01:46;;;;;;;3.97;3.00;;;;;;;12.81;90.73;100036.59;4983837;28;20712;-87
2021/05/15 06:04:12;;;;;;;4.50;3.35;;;;;;;13.86;84.93;100044.63;4943165;28;20034;-84
2021/05/15 06:06:38;;;;;;;5.03;3.22;;;;;;;14.82;79.91;100038.47;4924436;28;20073;-84
2021/05/15 06:09:06;;;;;;;4.40;3.33;;;;;;;15.27;76.00;100049.59;4929775;28;20069;-84
2021/05/15 06:11:31;;;;;;;4.20;2.80;;;;;;;15.42;74.35;100046.16;4947840;28;20030;-83
2021/05/15 06:13:57;;;;;;;3.50;2.38;;;;;;;15.09;74.77;100052.22;4956187;28;20038;-83
2021/05/15 06:16:23;;;;;;;5.05;2.53;;;;;;;14.95;74.56;100043.16;4959966;28;20479;-84
2021/05/15 06:18:48;;;;;;;3.40;2.20;;;;;;;14.96;75.42;100051.06;4933857;28;20037;-84
2021/05/15 06:21:14;;;;;;;2.75;2.28;;;;;;;15.16;74.71;100045.66;4949966;28;20042;-82
2021/05/15 06:23:39;;;;;;;3.70;2.65;;;;;;;15.51;72.89;100045.69;4950180;28;20069;-84
2021/05/15 06:26:09;;;;;;;3.55;2.60;;;;;;;15.66;73.22;100047.63;4942577;28;20034;-85
2021/05/15 06:28:38;;;;;;;5.22;2.53;;;;;;;15.76;74.21;100048.88;4961940;28;20045;-84
2021/05/15 06:31:07;;;;;;;3.97;2.25;;;;;;;15.68;73.70;100052.88;4974325;28;20034;-83
2021/05/15 06:33:33;;;;;;;3.10;2.28;;;;;;;15.49;73.58;100052.91;4941637;28;20034;-84
2021/05/15 06:35:59;;;;;;;2.50;2.10;;;;;;;15.47;76.43;100049.47;4931531;28;20045;-83
2021/05/15 06:38:24;;;;;;;5.00;2.80;;;;;;;15.11;75.98;100044.16;4955352;28;20037;-83
2021/05/15 06:40:50;;;;;;;2.40;2.05;;;;;;;15.01;76.77;100046.41;4963392;28;20046;-83
2021/05/15 06:43:16;;;;;;;3.05;2.00;;;;;;;15.07;76.65;100050.56;4931913;28;20063;-84
2021/05/15 06:45:42;;;;;;;4.43;2.30;;;;;;;15.06;77.18;100043.53;4944446;28;20045;-83
2021/05/15 06:48:07;;;;;;;3.92;2.03;;;;;;;15.22;77.98;100049.81;4950707;28;20030;-82
2021/05/15 06:50:33;;;;;;;3.00;2.35;;;;;;;15.28;77.98;100051.31;4959151;28;20031;-83
2021/05/15 06:52:58;;;;;;;3.60;2.33;;;;;;;15.21;76.41;100048.94;4948993;28;20486;-84
2021/05/15 06:55:26;;;;;;;2.83;2.20;;;;;;;14.90;76.99;100048.72;4969062;28;20166;-84
2021/05/15 06:57:54;;;;;;;3.47;2.40;;;;;;;14.74;77.11;100050.38;4951068;28;20523;-83
2021/05/15 07:00:21;;;;;;;4.55;2.28;;;;;;;14.62;79.84;100051.81;4960775;28;20140;-88
2021/05/15 07:02:47;;;;;;;3.67;2.60;;;;;;;14.47;81.29;100047.22;4933444;28;20053;-83
2021/05/15 07:05:12;;;;;;;3.72;2.63;;;;;;;14.57;84.70;100046.72;4972589;28;20038;-82
2021/05/15 07:07:38;;;;;;;4.38;2.60;;;;;;;14.82;82.72;100045.56;4954897;28;20182;-82
2021/05/15 07:10:04;;;;;;;4.70;2.72;;;;;;;14.99;78.88;100042.97;4965816;28;20034;-82
2021/05/15 07:12:29;;;;;;;3.00;2.30;;;;;;;15.21;77.97;100045.41;4951159;28;20033;-83
2021/05/15 07:14:55;;;;;;;4.68;2.70;;;;;;;15.25;76.36;100033.69;4963064;28;20115;-85
2021/05/15 07:17:26;;;;;;;4.78;2.25;;;;;;;15.41;77.00;100039.13;4950285;28;20097;-83
2021/05/15 07:19:56;;;;;;;5.18;2.42;;;;;;;15.51;74.93;100044.84;4934496;28;20035;-84
2021/05/15 07:22:24;;;;;;;5.13;3.78;;;;;;;15.53;74.54;100050.94;4942330;28;20031;-85
2021/05/15 07:24:55;;;;;;;3.40;2.15;;;;;;;15.65;74.90;100035.25;4944984;28;20114;-85
2021/05/15 07:27:21;;;;;;;5.53;3.00;;;;;;;15.81;75.42;100042.44;4953335;28;20948;-82
2021/05/15 07:29:48;;;;;;;5.05;3.00;;;;;;;15.59;73.47;100038.19;4970505;28;20771;-83
2021/05/15 07:32:14;;;;;;;3.67;2.90;;;;;;;15.73;75.31;100034.88;4964465;28;20035;-83
2021/05/15 07:34:39;;;;;;;3.78;2.92;;;;;;;15.86;76.01;100027.06;4978917;28;20042;-83
2021/05/15 07:37:05;;;;;;;4.90;3.33;;;;;;;15.81;71.31;100029.09;4942146;28;20582;-81
2021/05/15 07:39:30;;;;;;;4.55;3.10;;;;;;;15.83;73.96;100033.44;4944424;28;20537;-83
2021/05/15 07:41:56;;;;;;;4.00;3.05;;;;;;;15.77;73.23;100031.09;4966034;28;20030;-83
2021/05/15 07:44:23;;;;;;;4.32;3.20;;;;;;;15.71;73.92;100029.59;4949411;28;20026;-83
2021/05/15 07:46:49;;;;;;;5.32;3.83;;;;;;;15.59;74.50;100022.22;4975625;28;20582;-81
2021/05/15 07:49:17;;;;;;;5.63;3.85;;;;;;;15.60;73.96;100023.94;4936317;28;20035;-82
2021/05/15 07:51:43;;;;;;;6.30;5.13;;;;;;;15.59;73.20;100032.88;4962604;28;20108;-83
2021/05/15 07:54:08;;;;;;;5.68;4.72;;;;;;;15.64;76.35;100025.53;4948196;28;20499;-83
2021/05/15 07:56:34;;;;;;;5.65;4.57;;;;;;;15.79;77.64;100025.66;4971342;28;20039;-83
2021/05/15 07:58:59;;;;;;;5.93;4.80;;;;;;;15.94;72.39;100017.75;4930051;28;20141;-82
2021/05/15 08:01:25;;;;;;;6.90;5.05;;;;;;;16.09;72.54;100010.75;4954524;28;20471;-83
2021/05/15 08:03:51;;;;;;;7.45;5.28;;;;;;;16.09;71.87;100012.56;4927070;28;20125;-83
2021/05/15 08:06:17;;;;;;;7.97;5.20;;;;;;;16.15;75.16;100022.91;4945372;28;20054;-82
2021/05/15 08:08:42;;;;;;;8.55;5.68;;;;;;;16.25;73.35;100016.97;4951649;28;20030;-82
2021/05/15 08:11:08;;;;;;;9.85;6.20;;;;;;;16.30;73.63;100011.38;4941579;28;20491;-82
2021/05/15 08:13:33;;;;;;;8.90;6.10;;;;;;;16.55;74.59;100009.09;4943547;28;20022;-82
2021/05/15 08:15:59;;;;;;;10.35;6.53;;;;;;;16.61;71.75;100013.22;4932902;28;20150;-82
2021/05/15 08:18:24;;;;;;;12.35;6.50;;;;;;;16.79;72.25;100009.56;4962036;28;20045;-81
2021/05/15 08:20:50;;;;;;;9.35;6.63;;;;;;;16.92;72.57;100019.56;4978450;28;20026;-82
2021/05/15 08:23:16;;;;;;;10.05;7.70;;;;;;;16.86;69.22;100007.41;4953447;28;20607;-82
2021/05/15 08:25:42;;;;;;;10.45;7.43;;;;;;;17.02;71.08;100008.25;4970521;28;20059;-82
2021/05/15 08:28:11;;;;;;;7.93;5.93;;;;;;;17.08;70.57;100007.91;4954926;28;20503;-81
2021/05/15 08:30:38;;;;;;;9.15;6.32;;;;;;;17.20;68.10;100010.81;4931253;28;20108;-82
2021/05/15 08:33:07;;;;;;;9.25;6.05;;;;;;;17.35;71.11;100007.25;4951815;28;20070;-82
2021/05/15 08:35:33;;;;;;;7.13;5.78;;;;;;;17.43;67.12;100008.53;4959837;28;20038;-83
2021/05/15 08:37:59;;;;;;;7.40;5.45;;;;;;;17.50;66.12;99998.34;4960557;28;20452;-82
2021/05/15 08:40:26;;;;;;;10.13;5.07;;;;;;;17.30;67.45;100004.84;4926500;28;20125;-81
2021/05/15 08:42:53;;;;;;;5.90;4.38;;;;;;;17.39;68.09;100001.63;4967356;28;20038;-82
2021/05/15 08:45:20;;;;;;;6.20;4.28;;;;;;;17.44;68.87;100010.22;4989031;28;20043;-83
2021/05/15 08:47:46;;;;;;;5.65;4.10;;;;;;;17.60;66.00;100010.19;4970634;28;20046;-81
2021/05/15 08:50:17;;;;;;;4.88;4.40;;;;;;;17.66;68.11;100004.50;4938331;28;20034;-81
2021/05/15 08:52:47;;;;;;;4.47;3.83;;;;;;;17.78;67.91;99997.56;4955564;28;20037;-82
2021/05/15 08:55:17;;;;;;;5.85;4.05;;;;;;;17.80;64.22;99990.31;4974005;28;20093;-82
2021/05/15 08:57:43;;;;;;;7.65;4.63;;;;;;;17.80;62.03;99989.44;4940008;28;20039;-82
2021/05/15 09:00:10;;;;;;;5.60;4.28;;;;;;;17.79;66.88;99995.75;4954167;28;20077;-81
2021/05/15 09:02:36;;;;;;;5.80;4.30;;;;;;;17.78;64.80;100002.06;4986495;28;20074;-81
2021/05/15 09:05:07;;;;;;;4.43;3.55;;;;;;;17.85;64.40;99998.91;4964191;28;20047;-81
2021/05/15 09:07:34;;;;;;;5.28;4.22;;;;;;;18.07;68.25;99989.56;4968296;28;20534;-82
2021/05/15 09:10:05;;;;;;;7.50;4.95;;;;;;;18.21;62.28;99989.56;4970586;28;20046;-82
2021/05/15 09:12:32;;;;;;;6.15;5.13;;;;;;;18.50;62.30;99993.94;4973284;28;20500;-81
2021/05/15 09:15:00;;;;;;;6.05;4.60;;;;;;;18.71;62.72;99991.72;4947174;28;20550;-81
2021/05/15 09:17:27;;;;;;;6.72;4.90;;;;;;;18.84;62.22;99986.44;4949632;28;20133;-81
2021/05/15 09:19:54;;;;;;;5.75;4.40;;;;;;;18.75;57.83;99987.91;4946807;28;20068;-81
2021/05/15 09:22:26;;;;;;;5.65;4.75;;;;;;;18.82;59.74;99985.66;4958248;28;20687;-81
2021/05/15 09:24:53;;;;;;;4.93;3.97;;;;;;;19.00;60.10;99973.78;4947234;28;20105;-83
2021/05/15 09:27:31;;;;;;;4.97;3.95;;;;;;;19.22;61.92;99975.88;4956234;28;20043;-81
2021/05/15 09:29:58;;;;;;;8.00;5.88;;;;;;;18.80;55.84;99983.09;4949266;28;20066;-81
2021/05/15 09:32:30;;;;;;;6.65;5.22;;;;;;;18.91;56.05;99986.88;4934210;28;20042;-83
2021/05/15 09:34:58;;;;;;;5.83;5.20;;;;;;;18.90;58.98;99982.50;4976733;28;20672;-81
2021/05/15 09:37:31;;;;;;;5.82;4.20;;;;;;;18.82;59.57;99985.66;4983170;28;20041;-81
2021/05/15 09:40:15;;;;;;;6.13;5.10;;;;;;;18.66;57.75;99979.59;4962977;28;20051;-83
2021/05/15 09:43:00;;;;;;;6.05;4.65;;;;;;;18.43;61.08;99978.38;4971080;28;20058;-81
2021/05/15 09:45:32;;;;;;;8.25;5.00;;;;;;;18.36;60.75;99975.25;4987532;28;20053;-82
2021/05/15 09:48:05;;;;;;;4.97;4.47;;;;;;;18.21;60.63;99973.53;4971285;28;20043;-83
2021/05/15 09:50:33;;;;;;;7.43;5.25;;;;;;;17.97;61.41;99978.59;4970641;28;20058;-82
2021/05/15 09:53:19;;;;;;;5.82;4.40;;;;;;;18.00;62.15;99963.22;4957915;28;20388;-81
2021/05/15 09:55:51;;;;;;;6.43;3.65;;;;;;;18.21;64.69;99969.03;4955485;28;20620;-80
2021/05/15 09:58:18;;;;;;;5.90;4.22;;;;;;;18.10;61.24;99965.34;4957165;28;20045;-81
2021/05/15 10:00:46;;;;;;;5.05;4.40;;;;;;;17.83;61.60;99966.09;4937486;28;20065;-81
2021/05/15 10:03:35;;;;;;;8.27;4.43;;;;;;;17.83;63.03;99958.06;4965633;28;20727;-82
2021/05/15 10:06:07;;;;;;;4.95;4.07;;;;;;;17.85;64.30;99961.50;4939560;28;20046;-81
2021/05/15 10:08:36;;;;;;;5.05;4.53;;;;;;;17.95;63.14;99959.13;4958843;28;20558;-81
2021/05/15 10:11:05;;;;;;;4.53;3.95;;;;;;;17.81;60.93;99959.97;4948233;28;20070;-82
2021/05/15 10:13:33;;;;;;;5.55;4.43;;;;;;;17.89;63.55;99951.47;4959183;28;20046;-81
2021/05/15 10:16:01;;;;;;;4.82;4.00;;;;;;;18.16;62.89;99956.91;4966442;28;20061;-81
2021/05/15 10:18:28;;;;;;;5.57;4.25;;;;;;;18.43;63.81;99947.16;4968563;28;20047;-81
2021/05/15 10:20:55;;;;;;;5.47;4.53;;;;;;;18.41;65.61;99941.00;4945390;28;20515;-81
2021/05/15 10:23:23;;;;;;;4.97;4.50;;;;;;;18.35;62.04;99948.59;4950903;28;21139;-83
2021/05/15 10:25:59;;;;;;;5.53;4.65;;;;;;;18.22;60.35;99938.66;4946217;28;20042;-81
2021/05/15 10:28:28;;;;;;;4.80;3.88;;;;;;;18.03;62.31;99940.78;4950068;28;20502;-81
2021/05/15 10:31:21;;;;;;;10.85;5.07;;;;;;;18.11;60.59;99937.63;4939377;28;20415;-80
2021/05/15 10:33:48;;;;;;;7.65;6.13;;;;;;;18.12;61.85;99929.50;4945249;28;20474;-82
2021/05/15 10:36:23;;;;;;;4.40;4.00;;;;;;;17.93;61.68;99935.16;4954828;28;20042;-83
2021/05/15 10:38:51;;;;;;;4.95;4.45;;;;;;;18.00;62.45;99930.31;4971314;28;20125;-81
2021/05/15 10:41:20;;;;;;;4.90;4.10;;;;;;;17.95;64.09;99929.72;4971415;28;20078;-81
2021/05/15 10:43:49;;;;;;;5.18;3.67;;;;;;;17.89;62.57;99920.25;4946237;28;20087;-83
2021/05/15 10:46:26;;;;;;;4.85;4.35;;;;;;;18.11;61.72;99921.59;4950997;28;20061;-82
2021/05/15 10:49:00;;;;;;;7.15;4.72;;;;;;;18.10;63.01;99914.53;4957177;28;20065;-81
2021/05/15 10:51:31;;;;;;;6.00;4.57;;;;;;;18.03;63.31;99915.88;4954473;28;20042;-81
2021/05/15 10:53:58;;;;;;;6.72;6.05;;;;;;;17.97;60.13;99922.47;4945490;28;20115;-81
2021/05/15 10:56:40;;;;;;;4.95;4.40;;;;;;;17.94;62.04;99914.66;4955430;28;20475;-82
2021/05/15 10:59:09;;;;;;;4.47;4.07;;;;;;;17.97;62.67;99907.28;4948646;28;20050;-83
2021/05/15 11:01:47;;;;;;;4.72;4.28;;;;;;;18.09;62.68;99904.81;4945638;28;20050;-82
2021/05/15 11:04:22;;;;;;;5.43;4.85;;;;;;;18.04;57.48;99902.41;4980107;28;20457;-83
2021/05/15 11:07:01;;;;;;;4.63;4.00;;;;;;;17.93;60.08;99892.41;4980692;28;20050;-82
2021/05/15 11:09:30;;;;;;;7.05;4.90;;;;;;;17.88;60.43;99890.97;4971319;28;20042;-82
2021/05/15 11:12:13;;;;;;;5.22;4.72;;;;;;;17.50;60.86;99888.84;4972277;28;20050;-82
2021/05/15 11:14:42;;;;;;;4.68;4.03;;;;;;;17.50;63.77;99888.84;4950063;28;20692;-83
2021/05/15 11:17:19;;;;;;;4.40;4.00;;;;;;;17.42;64.65;99886.63;4961946;28;20035;-81
2021/05/15 11:19:54;;;;;;;4.45;3.38;;;;;;;17.35;65.16;99885.28;4987817;28;20051;-82
2021/05/15 11:22:35;;;;;;;4.20;3.78;;;;;;;17.31;65.91;99889.09;4940202;28;20435;-82
2021/05/15 11:25:04;;;;;;;5.05;4.18;;;;;;;17.34;69.01;99888.91;4953010;28;20043;-82
2021/05/15 11:27:31;;;;;;;5.05;4.28;;;;;;;17.20;65.73;99888.88;4969465;28;20097;-82